createdAt,value
2019-01-10T00:00:51.879Z,-1.50
2019-01-10T00:03:21.643Z,-1.40
2019-01-10T00:05:51.453Z,-1.40
2019-01-10T00:08:21.337Z,-1.40
2019-01-10T00:10:51.478Z,-1.40
2019-01-10T00:13:21.425Z,-1.30
2019-01-10T00:15:51.369Z,-1.40
2019-01-10T00:18:21.322Z,-1.40
2019-01-10T00:20:51.333Z,-1.40
2019-01-10T00:23:21.305Z,-1.40
2019-01-10T00:25:51.286Z,-1.50
2019-01-10T00:28:21.170Z,-1.50
2019-01-10T00:30:50.955Z,-1.50
2019-01-10T00:33:20.733Z,-1.40
2019-01-10T00:35:50.660Z,-1.40
2019-01-10T00:38:20.410Z,-1.50
2019-01-10T00:40:50.266Z,-1.40
2019-01-10T00:43:20.022Z,-1.40
2019-01-10T00:45:49.878Z,-1.40
2019-01-10T00:48:19.634Z,-1.40
2019-01-10T00:50:49.525Z,-1.40
2019-01-10T00:53:19.344Z,-1.30
2019-01-10T00:55:49.138Z,-1.30
2019-01-10T00:58:18.892Z,-1.20
2019-01-10T01:00:48.744Z,-1.20
2019-01-10T01:03:18.571Z,-1.10
2019-01-10T01:05:48.509Z,-1.00
2019-01-10T01:08:18.359Z,-1.00
2019-01-10T01:10:48.270Z,-1.10
2019-01-10T01:13:18.145Z,-1.10
2019-01-10T01:15:48.080Z,-1.10
2019-01-10T01:18:17.839Z,-1.20
2019-01-10T01:20:47.713Z,-1.20
2019-01-10T01:23:17.520Z,-1.20
2019-01-10T01:25:47.312Z,-1.30
2019-01-10T01:28:17.150Z,-1.30
2019-01-10T01:30:46.938Z,-1.30
2019-01-10T01:33:16.812Z,-1.30
2019-01-10T01:35:46.680Z,-1.30
2019-01-10T01:38:16.537Z,-1.30
2019-01-10T01:40:46.447Z,-1.30
2019-01-10T01:43:16.212Z,-1.30
2019-01-10T01:45:46.060Z,-1.30
2019-01-10T01:48:15.817Z,-1.30
2019-01-10T01:50:45.630Z,-1.30
2019-01-10T01:53:15.462Z,-1.30
2019-01-10T01:55:45.338Z,-1.30
2019-01-10T01:58:15.191Z,-1.30
2019-01-10T02:00:45.011Z,-1.30
2019-01-10T02:03:14.875Z,-1.30
2019-01-10T02:05:44.702Z,-1.30
2019-01-10T02:08:14.491Z,-1.30
2019-01-10T02:10:44.259Z,-1.30
2019-01-10T02:13:16.958Z,-1.30
2019-01-10T02:15:45.731Z,-1.20
2019-01-10T02:18:15.601Z,-1.30
2019-01-10T02:20:45.423Z,-1.20
2019-01-10T02:23:15.221Z,-1.10
2019-01-10T02:25:45.079Z,-1.20
2019-01-10T02:28:14.862Z,-1.20
2019-01-10T02:30:44.620Z,-1.20
2019-01-10T02:33:14.484Z,-1.20
2019-01-10T02:35:44.246Z,-1.20
2019-01-10T02:38:14.029Z,-1.10
2019-01-10T02:40:43.857Z,-1.20
2019-01-10T02:43:13.719Z,-1.20
2019-01-10T02:45:43.553Z,-1.20
2019-01-10T02:48:13.403Z,-1.20
2019-01-10T02:50:43.229Z,-1.20
2019-01-10T02:53:13.023Z,-1.20
2019-01-10T02:55:42.782Z,-1.20
2019-01-10T02:58:12.574Z,-1.20
2019-01-10T03:00:42.401Z,-1.20
2019-01-10T03:03:12.186Z,-1.20
2019-01-10T03:05:41.941Z,-1.30
2019-01-10T03:08:11.806Z,-1.30
2019-01-10T03:10:41.548Z,-1.30
2019-01-10T03:13:11.334Z,-1.20
2019-01-10T03:15:41.090Z,-1.20
2019-01-10T03:18:10.952Z,-1.20
2019-01-10T03:20:40.871Z,-1.20
2019-01-10T03:23:10.904Z,-1.20
2019-01-10T03:25:40.887Z,-1.20
2019-01-10T03:28:10.908Z,-1.10
2019-01-10T03:30:41.324Z,-1.10
2019-01-10T03:33:11.628Z,-1.10
2019-01-10T03:35:41.646Z,-1.10
2019-01-10T03:38:11.621Z,-1.00
2019-01-10T03:40:41.658Z,-1.10
2019-01-10T03:43:11.558Z,-1.00
2019-01-10T03:45:41.416Z,-1.10
2019-01-10T03:48:11.240Z,-1.10
2019-01-10T03:50:41.096Z,-1.00
2019-01-10T03:53:10.852Z,-1.00
2019-01-10T03:55:40.740Z,-1.00
2019-01-10T03:58:10.493Z,-1.10
2019-01-10T04:00:40.386Z,-1.10
2019-01-10T04:03:10.214Z,-1.20
2019-01-10T04:05:39.995Z,-1.20
2019-01-10T04:08:09.760Z,-1.20
2019-01-10T04:10:39.547Z,-1.20
2019-01-10T04:13:09.301Z,-1.10
2019-01-10T04:15:39.163Z,-1.10
2019-01-10T04:18:09.008Z,-1.10
2019-01-10T04:20:38.795Z,-1.10
2019-01-10T04:23:08.555Z,-1.10
2019-01-10T04:25:38.417Z,-1.00
2019-01-10T04:28:08.243Z,-1.00
2019-01-10T04:30:38.108Z,-1.00
2019-01-10T04:33:08.018Z,-1.00
2019-01-10T04:35:37.862Z,-1.00
2019-01-10T04:38:07.729Z,-1.00
2019-01-10T04:40:37.543Z,-1.00
2019-01-10T04:43:07.414Z,-1.00
2019-01-10T04:45:37.306Z,-0.90
2019-01-10T04:48:07.117Z,-1.00
2019-01-10T04:50:36.914Z,-0.90
2019-01-10T04:53:06.813Z,-1.00
2019-01-10T04:55:36.635Z,-1.00
2019-01-10T04:58:06.418Z,-1.00
2019-01-10T05:00:36.179Z,-0.90
2019-01-10T05:03:05.978Z,-1.00
2019-01-10T05:05:35.808Z,-1.00
2019-01-10T05:08:05.664Z,-0.90
2019-01-10T05:10:35.425Z,-1.00
2019-01-10T05:13:05.278Z,-1.00
2019-01-10T05:15:35.110Z,-0.90
2019-01-10T05:18:04.899Z,-0.90
2019-01-10T05:20:34.740Z,-0.90
2019-01-10T05:23:04.535Z,-0.80
2019-01-10T05:25:34.290Z,-0.80
2019-01-10T05:28:04.176Z,-0.90
2019-01-10T05:30:34.009Z,-0.90
2019-01-10T05:33:03.864Z,-0.90
2019-01-10T05:35:33.773Z,-0.90
2019-01-10T05:38:03.632Z,-0.80
2019-01-10T05:40:33.517Z,-0.80
2019-01-10T05:43:03.369Z,-0.90
2019-01-10T05:45:33.209Z,-0.80
2019-01-10T05:48:03.071Z,-0.90
2019-01-10T05:50:32.901Z,-0.90
2019-01-10T05:53:02.757Z,-0.80
2019-01-10T05:55:32.623Z,-0.80
2019-01-10T05:58:02.461Z,-0.80
2019-01-10T06:00:32.323Z,-0.70
2019-01-10T06:03:02.163Z,-0.80
2019-01-10T06:05:32.010Z,-0.80
2019-01-10T06:08:01.831Z,-0.80
2019-01-10T06:10:31.744Z,-0.80
2019-01-10T06:13:01.571Z,-0.90
2019-01-10T06:15:31.425Z,-0.80
2019-01-10T06:18:01.252Z,-0.70
2019-01-10T06:20:31.148Z,-0.70
2019-01-10T06:23:00.974Z,-0.70
2019-01-10T06:25:30.859Z,-0.70
2019-01-10T06:28:00.759Z,-0.80
2019-01-10T06:30:30.607Z,-0.80
2019-01-10T06:33:00.435Z,-0.70
2019-01-10T06:35:30.312Z,-0.70
2019-01-10T06:38:00.131Z,-0.70
2019-01-10T06:40:29.990Z,-0.70
2019-01-10T06:42:59.814Z,-0.70
2019-01-10T06:45:29.679Z,-0.70
2019-01-10T06:47:59.507Z,-0.70
2019-01-10T06:50:29.375Z,-0.70
2019-01-10T06:52:59.218Z,-0.70
2019-01-10T06:55:29.077Z,-0.70
2019-01-10T06:57:58.954Z,-0.70
2019-01-10T07:00:28.813Z,-0.70
2019-01-10T07:02:58.638Z,-0.60
2019-01-10T07:05:28.448Z,-0.60
2019-01-10T07:07:58.345Z,-0.60
2019-01-10T07:10:29.445Z,-0.60
2019-01-10T07:12:59.333Z,-0.70
2019-01-10T07:15:29.317Z,-0.70
2019-01-10T07:17:59.233Z,-0.60
2019-01-10T07:20:28.984Z,-0.60
2019-01-10T07:22:58.849Z,-0.60
2019-01-10T07:25:28.607Z,-0.50
2019-01-10T07:28:03.062Z,-0.50
2019-01-10T07:30:36.313Z,-0.50
2019-01-10T07:33:04.427Z,-0.50
2019-01-10T07:35:34.251Z,-0.50
2019-01-10T07:38:04.110Z,-0.50
2019-01-10T07:40:38.393Z,-0.40
2019-01-10T07:43:08.256Z,-0.40
2019-01-10T07:45:38.157Z,-0.30
2019-01-10T07:48:09.577Z,-0.30
2019-01-10T07:50:39.408Z,-0.30
2019-01-10T07:53:09.194Z,-0.30
2019-01-10T07:55:38.945Z,-0.40
2019-01-10T07:58:08.830Z,-0.30
2019-01-10T08:00:38.699Z,-0.40
2019-01-10T08:03:08.763Z,-0.40
2019-01-10T08:05:38.895Z,-0.30
2019-01-10T08:08:09.094Z,-0.30
2019-01-10T08:10:39.010Z,-0.20
2019-01-10T08:13:08.886Z,-0.10
2019-01-10T08:15:38.804Z,-0.10
2019-01-10T08:18:08.696Z,-0.10
2019-01-10T08:20:38.451Z,-0.10
2019-01-10T08:23:08.309Z,-0.20
2019-01-10T08:25:38.143Z,-0.20
2019-01-10T08:28:08.032Z,-0.20
2019-01-10T08:30:37.809Z,-0.10
2019-01-10T08:33:07.664Z,-0.10
2019-01-10T08:35:37.499Z,-0.10
2019-01-10T08:38:07.355Z,-0.20
2019-01-10T08:40:37.194Z,-0.20
2019-01-10T08:43:07.052Z,-0.10
2019-01-10T08:45:36.815Z,-0.20
2019-01-10T08:48:06.705Z,-0.20
2019-01-10T08:50:36.538Z,-0.20
2019-01-10T08:53:06.492Z,-0.30
2019-01-10T08:55:36.244Z,-0.20
2019-01-10T08:58:06.032Z,-0.20
2019-01-10T09:00:35.799Z,-0.20
2019-01-10T09:03:05.651Z,-0.20
2019-01-10T09:05:35.404Z,-0.20
2019-01-10T09:08:05.298Z,-0.10
2019-01-10T09:10:35.161Z,-0.10
2019-01-10T09:13:05.731Z,0.00
2019-01-10T09:15:35.528Z,-0.10
2019-01-10T09:18:06.312Z,-0.10
2019-01-10T09:20:36.069Z,0.00
2019-01-10T09:23:05.921Z,0.10
2019-01-10T09:25:35.745Z,0.20
2019-01-10T09:28:05.534Z,0.10
2019-01-10T09:30:35.387Z,0.10
2019-01-10T09:33:05.281Z,0.10
2019-01-10T09:35:35.106Z,0.10
2019-01-10T09:38:04.960Z,0.20
2019-01-10T09:40:34.718Z,0.20
2019-01-10T09:43:04.641Z,0.30
2019-01-10T09:45:42.812Z,0.30
2019-01-10T09:48:06.083Z,0.30
2019-01-10T09:50:35.879Z,0.30
2019-01-10T09:53:05.799Z,0.30
2019-01-10T09:55:35.587Z,0.30
2019-01-10T09:58:05.533Z,0.30
2019-01-10T10:00:35.379Z,0.30
2019-01-10T10:03:05.123Z,0.40
2019-01-10T10:05:34.979Z,0.30
2019-01-10T10:08:05.006Z,0.40
2019-01-10T10:10:34.811Z,0.40
2019-01-10T10:13:04.565Z,0.40
2019-01-10T10:15:34.347Z,0.30
2019-01-10T10:18:04.171Z,0.40
2019-01-10T10:20:33.956Z,0.40
2019-01-10T10:23:03.746Z,0.40
2019-01-10T10:25:33.495Z,0.40
2019-01-10T10:28:03.280Z,0.30
2019-01-10T10:30:33.129Z,0.40
2019-01-10T10:33:02.881Z,0.30
2019-01-10T10:35:32.640Z,0.40
2019-01-10T10:38:02.538Z,0.50
2019-01-10T10:40:32.290Z,0.40
2019-01-10T10:43:02.082Z,0.30
2019-01-10T10:45:31.935Z,0.40
2019-01-10T10:48:01.805Z,0.50
2019-01-10T10:50:31.815Z,0.50
2019-01-10T10:53:03.245Z,0.60
2019-01-10T10:55:33.110Z,0.50
2019-01-10T10:58:02.891Z,0.50
2019-01-10T11:00:32.818Z,0.50
2019-01-10T11:03:02.598Z,0.50
2019-01-10T11:05:32.732Z,0.50
2019-01-10T11:08:02.578Z,0.50
2019-01-10T11:10:32.402Z,0.50
2019-01-10T11:13:02.201Z,0.60
2019-01-10T11:15:32.221Z,0.60
2019-01-10T11:18:02.088Z,0.60
2019-01-10T11:20:31.829Z,0.60
2019-01-10T11:23:10.205Z,0.50
2019-01-10T11:25:33.224Z,0.50
2019-01-10T11:28:03.792Z,0.50
2019-01-10T11:30:33.535Z,0.50
2019-01-10T11:33:03.403Z,0.50
2019-01-10T11:35:33.149Z,0.50
2019-01-10T11:38:02.934Z,0.60
2019-01-10T11:40:32.862Z,0.50
2019-01-10T11:43:02.699Z,0.50
2019-01-10T11:45:32.587Z,0.50
2019-01-10T11:48:02.347Z,0.50
2019-01-10T11:50:32.128Z,0.60
2019-01-10T11:53:01.900Z,0.70
2019-01-10T11:55:31.684Z,0.80
2019-01-10T11:58:01.437Z,0.70
2019-01-10T12:00:31.493Z,0.70
2019-01-10T12:03:01.240Z,0.60
2019-01-10T12:05:31.051Z,0.80
2019-01-10T12:08:00.862Z,0.80
2019-01-10T12:10:30.635Z,0.80
2019-01-10T12:13:00.383Z,0.70
2019-01-10T12:15:30.163Z,0.70
2019-01-10T12:17:59.911Z,0.70
2019-01-10T12:20:29.695Z,0.70
2019-01-10T12:22:59.437Z,0.70
2019-01-10T12:25:29.286Z,0.60
2019-01-10T12:27:59.106Z,0.60
2019-01-10T12:30:28.923Z,0.60
2019-01-10T12:32:58.723Z,0.60
2019-01-10T12:35:28.583Z,0.60
2019-01-10T12:37:58.400Z,0.60
2019-01-10T12:40:28.182Z,0.80
2019-01-10T12:42:57.967Z,0.80
2019-01-10T12:45:27.784Z,0.80
2019-01-10T12:47:57.637Z,0.70
2019-01-10T12:50:29.853Z,0.70
2019-01-10T12:52:59.637Z,0.80
2019-01-10T12:55:29.381Z,0.70
2019-01-10T12:57:59.262Z,0.60
2019-01-10T13:00:29.018Z,0.60
2019-01-10T13:02:58.873Z,0.70
2019-01-10T13:05:28.616Z,0.80
2019-01-10T13:08:03.335Z,0.70
2019-01-10T13:10:29.873Z,0.70
2019-01-10T13:12:59.718Z,0.60
2019-01-10T13:15:29.576Z,0.50
2019-01-10T13:17:59.435Z,0.60
2019-01-10T13:20:29.181Z,0.70
2019-01-10T13:22:58.963Z,0.60
2019-01-10T13:25:29.190Z,0.60
2019-01-10T13:27:58.968Z,0.60
2019-01-10T13:30:28.721Z,0.60
2019-01-10T13:32:58.579Z,0.60
2019-01-10T13:35:28.405Z,0.60
2019-01-10T13:37:58.255Z,0.60
2019-01-10T13:40:29.164Z,0.50
2019-01-10T13:42:58.985Z,0.60
2019-01-10T13:45:28.806Z,0.60
2019-01-10T13:47:58.833Z,0.60
2019-01-10T13:50:29.079Z,0.70
2019-01-10T13:52:58.829Z,0.70
2019-01-10T13:55:28.794Z,0.50
2019-01-10T13:57:58.812Z,0.50
2019-01-10T14:00:35.388Z,0.60
2019-01-10T14:03:01.641Z,0.50
2019-01-10T14:05:31.425Z,0.50
2019-01-10T14:08:01.250Z,0.60
2019-01-10T14:10:31.040Z,0.50
2019-01-10T14:13:00.791Z,0.60
2019-01-10T14:15:31.913Z,0.60
2019-01-10T14:18:01.661Z,0.60
2019-01-10T14:20:31.527Z,0.60
2019-01-10T14:23:01.451Z,0.60
2019-01-10T14:25:31.215Z,0.60
2019-01-10T14:28:01.063Z,0.60
2019-01-10T14:30:34.419Z,0.40
2019-01-10T14:33:04.645Z,0.40
2019-01-10T14:35:34.494Z,0.50
2019-01-10T14:38:04.315Z,0.50
2019-01-10T14:40:34.169Z,0.50
2019-01-10T14:43:03.997Z,0.50
2019-01-10T14:45:35.923Z,0.50
2019-01-10T14:48:06.117Z,0.40
2019-01-10T14:50:36.280Z,0.50
2019-01-10T14:53:06.210Z,0.30
2019-01-10T14:55:36.060Z,0.40
2019-01-10T14:58:06.646Z,0.40
2019-01-10T15:00:36.399Z,0.30
2019-01-10T15:03:06.253Z,0.30
2019-01-10T15:05:36.009Z,0.30
2019-01-10T15:08:06.392Z,0.20
2019-01-10T15:10:36.147Z,0.30
2019-01-10T15:13:06.110Z,0.30
2019-01-10T15:15:35.863Z,0.30
2019-01-10T15:18:05.711Z,0.20
2019-01-10T15:20:35.583Z,0.20
2019-01-10T15:23:05.443Z,0.10
2019-01-10T15:25:35.205Z,0.20
2019-01-10T15:28:05.273Z,0.20
2019-01-10T15:30:35.041Z,0.10
2019-01-10T15:33:04.882Z,0.10
2019-01-10T15:35:34.635Z,0.10
2019-01-10T15:38:04.461Z,0.10
2019-01-10T15:40:34.388Z,0.00
2019-01-10T15:43:04.253Z,-0.10
2019-01-10T15:45:34.096Z,0.00
2019-01-10T15:48:03.951Z,0.10
2019-01-10T15:50:33.786Z,0.10
2019-01-10T15:53:03.574Z,0.10
2019-01-10T15:55:33.397Z,0.20
2019-01-10T15:58:03.252Z,0.10
2019-01-10T16:00:32.999Z,0.20
2019-01-10T16:03:02.859Z,0.10
2019-01-10T16:05:32.634Z,0.00
2019-01-10T16:08:02.531Z,0.00
2019-01-10T16:10:32.318Z,0.00
2019-01-10T16:13:02.191Z,-0.10
2019-01-10T16:15:32.017Z,-0.10
2019-01-10T16:18:01.833Z,-0.10
2019-01-10T16:20:31.616Z,-0.10
2019-01-10T16:23:01.454Z,-0.20
2019-01-10T16:25:31.252Z,-0.30
2019-01-10T16:28:01.139Z,-0.20
2019-01-10T16:30:31.401Z,-0.20
2019-01-10T16:33:01.323Z,-0.20
2019-01-10T16:35:31.193Z,-0.20
2019-01-10T16:38:01.012Z,-0.20
2019-01-10T16:40:30.827Z,-0.30
2019-01-10T16:43:00.644Z,-0.40
2019-01-10T16:45:31.152Z,-0.40
2019-01-10T16:48:01.014Z,-0.40
2019-01-10T16:50:30.874Z,-0.40
2019-01-10T16:53:00.702Z,-0.30
2019-01-10T16:55:30.505Z,-0.30
2019-01-10T16:58:00.328Z,-0.40
2019-01-10T17:00:32.002Z,-0.30
2019-01-10T17:03:01.762Z,-0.30
2019-01-10T17:05:31.723Z,-0.40
2019-01-10T17:08:01.553Z,-0.40
2019-01-10T17:10:31.609Z,-0.40
2019-01-10T17:13:01.512Z,-0.50
2019-01-10T17:15:31.438Z,-0.50
2019-01-10T17:18:01.200Z,-0.50
2019-01-10T17:20:31.763Z,-0.40
2019-01-10T17:23:01.708Z,-0.40
2019-01-10T17:25:31.485Z,-0.50
2019-01-10T17:28:01.317Z,-0.50
2019-01-10T17:30:31.484Z,-0.50
2019-01-10T17:33:01.419Z,-0.50
2019-01-10T17:35:32.275Z,-0.50
2019-01-10T17:38:02.024Z,-0.50
2019-01-10T17:40:32.020Z,-0.60
2019-01-10T17:43:01.846Z,-0.60
2019-01-10T17:45:33.414Z,-0.60
2019-01-10T17:48:03.273Z,-0.60
2019-01-10T17:50:33.040Z,-0.70
2019-01-10T17:53:02.906Z,-0.70
2019-01-10T17:55:32.753Z,-0.80
2019-01-10T17:58:02.632Z,-0.80
2019-01-10T18:00:32.460Z,-0.70
2019-01-10T18:03:02.325Z,-0.70
2019-01-10T18:05:32.148Z,-0.70
2019-01-10T18:08:01.996Z,-0.70
2019-01-10T18:10:31.803Z,-0.80
2019-01-10T18:13:01.595Z,-0.80
2019-01-10T18:15:31.422Z,-0.90
2019-01-10T18:18:01.299Z,-0.90
2019-01-10T18:20:37.149Z,-0.90
2019-01-10T18:23:07.311Z,-1.00
2019-01-10T18:25:37.142Z,-1.00
2019-01-10T18:28:07.146Z,-1.00
2019-01-10T18:30:43.163Z,-1.00
2019-01-10T18:33:08.531Z,-1.00
2019-01-10T18:35:38.504Z,-1.00
2019-01-10T18:38:08.359Z,-0.90
2019-01-10T18:40:38.219Z,-0.80
2019-01-10T18:43:08.084Z,-0.70
2019-01-10T18:45:37.990Z,-0.80
2019-01-10T18:48:08.037Z,-0.90
2019-01-10T18:50:37.894Z,-0.90
2019-01-10T18:53:07.751Z,-0.80
2019-01-10T18:55:37.666Z,-1.00
2019-01-10T18:58:07.602Z,-1.00
2019-01-10T19:00:37.602Z,-1.10
2019-01-10T19:03:07.559Z,-1.20
2019-01-10T19:05:37.515Z,-1.20
2019-01-10T19:08:07.544Z,-1.20
2019-01-10T19:10:37.499Z,-1.30
2019-01-10T19:13:07.438Z,-1.40
2019-01-10T19:15:37.357Z,-1.40
2019-01-10T19:18:08.895Z,-1.30
2019-01-10T19:20:38.932Z,-1.40
2019-01-10T19:23:08.831Z,-1.50
2019-01-10T19:25:38.809Z,-1.40
2019-01-10T19:28:08.831Z,-1.50
2019-01-10T19:30:38.883Z,-1.70
2019-01-10T19:33:08.869Z,-1.70
2019-01-10T19:35:38.962Z,-1.60
2019-01-10T19:38:09.012Z,-1.70
2019-01-10T19:40:38.875Z,-1.60
2019-01-10T19:43:08.873Z,-1.70
2019-01-10T19:45:38.737Z,-1.70
2019-01-10T19:48:09.864Z,-1.70
2019-01-10T19:50:39.785Z,-1.70
2019-01-10T19:53:09.768Z,-1.60
2019-01-10T19:55:39.609Z,-1.70
2019-01-10T19:58:09.512Z,-1.60
2019-01-10T20:00:39.942Z,-1.70
2019-01-10T20:03:09.798Z,-1.70
2019-01-10T20:05:39.718Z,-1.60
2019-01-10T20:08:09.573Z,-1.70
2019-01-10T20:10:39.432Z,-1.70
2019-01-10T20:13:09.219Z,-1.70
2019-01-10T20:15:39.125Z,-1.70
2019-01-10T20:18:09.077Z,-1.70
2019-01-10T20:20:39.571Z,-1.70
2019-01-10T20:23:10.378Z,-1.70
2019-01-10T20:25:40.328Z,-1.70
2019-01-10T20:28:10.309Z,-1.70
2019-01-10T20:30:40.213Z,-1.60
2019-01-10T20:33:10.044Z,-1.60
2019-01-10T20:35:40.082Z,-1.50
2019-01-10T20:38:09.859Z,-1.50
2019-01-10T20:40:39.971Z,-1.50
2019-01-10T20:43:09.799Z,-1.50
2019-01-10T20:45:39.656Z,-1.50
2019-01-10T20:48:09.634Z,-1.60
2019-01-10T20:50:39.641Z,-1.60
2019-01-10T20:53:09.878Z,-1.50
2019-01-10T20:55:39.751Z,-1.40
2019-01-10T20:58:09.670Z,-1.30
2019-01-10T21:00:39.598Z,-1.40
2019-01-10T21:03:09.460Z,-1.30
2019-01-10T21:05:39.301Z,-1.40
2019-01-10T21:08:09.089Z,-1.50
2019-01-10T21:10:38.983Z,-1.50
2019-01-10T21:13:08.851Z,-1.60
2019-01-10T21:15:38.739Z,-1.60
2019-01-10T21:18:08.500Z,-1.60
2019-01-10T21:20:38.503Z,-1.50
2019-01-10T21:23:08.420Z,-1.40
2019-01-10T21:25:38.256Z,-1.40
2019-01-10T21:28:08.128Z,-1.40
2019-01-10T21:30:38.066Z,-1.30
2019-01-10T21:33:10.847Z,-1.40
2019-01-10T21:35:46.228Z,-1.40
2019-01-10T21:38:16.362Z,-1.40
2019-01-10T21:40:46.290Z,-1.40
2019-01-10T21:43:19.031Z,-1.50
2019-01-10T21:45:48.881Z,-1.50
2019-01-10T21:48:18.736Z,-1.50
2019-01-10T21:50:48.486Z,-1.60
2019-01-10T21:53:18.343Z,-1.70
2019-01-10T21:55:48.150Z,-1.60
2019-01-10T21:58:17.919Z,-1.60
2019-01-10T22:00:47.686Z,-1.60
2019-01-10T22:03:20.452Z,-1.80
2019-01-10T22:05:50.568Z,-1.80
2019-01-10T22:08:20.440Z,-1.70
2019-01-10T22:10:50.265Z,-1.70
2019-01-10T22:13:20.123Z,-1.60
2019-01-10T22:15:50.011Z,-1.60
2019-01-10T22:18:19.836Z,-1.70
2019-01-10T22:20:49.692Z,-1.60
2019-01-10T22:23:19.558Z,-1.70
2019-01-10T22:25:49.312Z,-1.80
2019-01-10T22:28:19.178Z,-1.70
2019-01-10T22:30:48.981Z,-1.80
2019-01-10T22:33:18.808Z,-1.80
2019-01-10T22:35:48.594Z,-2.00
2019-01-10T22:38:18.610Z,-2.00
2019-01-10T22:40:48.473Z,-2.00
2019-01-10T22:43:18.403Z,-2.00
2019-01-10T22:45:48.368Z,-2.10
2019-01-10T22:48:18.242Z,-2.00
2019-01-10T22:50:48.211Z,-1.90
2019-01-10T22:53:18.146Z,-1.90
2019-01-10T22:55:48.099Z,-1.90
2019-01-10T22:58:17.967Z,-1.90
2019-01-10T23:00:57.146Z,-1.90
2019-01-10T23:03:27.857Z,-1.90
2019-01-10T23:05:57.672Z,-1.90
2019-01-10T23:08:27.494Z,-2.00
2019-01-10T23:10:57.338Z,-2.00
2019-01-10T23:13:27.088Z,-2.00
2019-01-10T23:15:56.963Z,-1.90
2019-01-10T23:18:26.714Z,-1.90
2019-01-10T23:20:58.364Z,-2.00
2019-01-10T23:23:28.191Z,-2.00
2019-01-10T23:25:58.040Z,-2.10
2019-01-10T23:28:27.865Z,-2.00
2019-01-10T23:31:00.887Z,-2.10
2019-01-10T23:33:30.831Z,-2.10
2019-01-10T23:36:03.252Z,-2.10
2019-01-10T23:38:33.081Z,-2.10
2019-01-10T23:41:03.036Z,-2.20
2019-01-10T23:43:32.864Z,-2.20
2019-01-10T23:46:02.740Z,-2.10
2019-01-10T23:48:32.666Z,-2.20
2019-01-10T23:51:03.005Z,-2.20
2019-01-10T23:53:32.883Z,-2.30
2019-01-10T23:56:02.739Z,-2.30
2019-01-10T23:58:32.482Z,-2.20
